Terminal Aerodrome Forecast
Issued by NWS

Home | Current Version | Previous Version | Text Only | Print | Product List | Glossary On
Versions: 1 2 3 4 5 6 7 8 9 10 11 12 13 14 15
000
FTUS44 KLIX 201231 AAB
TAFMCB
TAF AMD
KMCB 201231Z 2013/2112 00000KT 2SM BR BKN003
     FM201400 22004KT P6SM SCT035 BKN100
     FM210200 00000KT P6SM FEW020 SCT200
     FM210700 00000KT 5SM BR FEW015 SCT200
     FM211100 00000KT 1 1/2SM BR FEW008 SCT090=

USA.gov is the U.S. government's official web portal to all federal, state and local government web resources and services.